メインページ
METAR-TAF:

METAR-TAF

空港 :

北九州空港

北九州, 日本

緯度: 33-50N, 経度: 130-57E, 海抜: 3m

現時点の気象観測

当レポートは22分前の07:00(UTC)に作成
変向風 9kt
気温 29°C
湿度 62%
気圧 1006 hPa
視程10km以上
高度3000ftの雲はほとんどない
高度5000ftの千切れ雲あり
千切れ雲あり

METAR: RJFR 200700Z VRB09KT 9999 FEW030 BKN050 BKN/// 29/21 Q1006

時間: 16:22 (07:22 UTC)

予報

当レポートは2時間15分前の05:07(UTC)に作成
予報は20日の 06時(UTC)から 21日の 12時(UTC)まで有効
東/南東の風 12kt
視程10km以上
高度1500ftの雲はほとんどない
高度4000ftの千切れ雲あり

TAF: RJFR 200507Z 2006/2112 11012KT 9999 FEW015 BKN040

4,000以上の空港の気象観測と天気予報(METAR報とTAF報)

利用可能な観測所は地図上に黄色い丸と赤い丸で示す。

丸の上にカーソルを重ねると観測所名を参照できる。

次にクリックすると気象観測と天気予報を参照できる。

マップの切り替え:黒色「×」印の緑ボタンをクリックして拡大、「-」印の緑ボタンをクリックして縮小、緑色の三角印をクリックして隣りの地図に切り替え


METAR-TAF: